Time,TemperatureF,DewpointF,PressureIn,WindDirection,WindDirectionDegrees,WindSpeedMPH,WindSpeedGustMPH,Humidity,HourlyPrecipIn,Conditions,Clouds,dailyrainin,SoftwareType,DateUTC
2013-06-23 00:01:00,68.0,61.0,30.34,SSE,159,6.0,8.0,79,0.00,,,0.00,,2013-06-23 04:01:00,
2013-06-23 00:11:00,68.0,61.0,30.34,SSE,159,6.0,8.0,79,0.00,,,0.00,,2013-06-23 04:11:00,
2013-06-23 00:21:00,68.0,61.0,30.34,SSE,159,6.0,8.0,79,0.00,,,0.00,,2013-06-23 04:21:00,
2013-06-23 00:31:00,68.0,61.0,30.35,South,173,5.0,7.0,79,0.00,,,0.00,,2013-06-23 04:31:00,
2013-06-23 00:42:00,68.0,61.0,30.35,South,173,5.0,7.0,79,0.00,,,0.00,,2013-06-23 04:42:00,
2013-06-23 00:52:00,68.0,61.0,30.35,South,173,5.0,7.0,79,0.00,,,0.00,,2013-06-23 04:52:00,
2013-06-23 01:01:00,68.0,61.0,30.35,South,173,5.0,7.0,79,0.00,,,0.00,,2013-06-23 05:01:00,
2013-06-23 01:11:00,68.0,61.0,30.35,South,173,5.0,7.0,79,0.00,,,0.00,,2013-06-23 05:11:00,
2013-06-23 01:42:00,66.0,62.0,30.35,South,187,7.0,8.0,86,0.00,,,0.00,,2013-06-23 05:42:00,
2013-06-23 01:52:00,66.0,62.0,30.35,South,170,3.0,6.0,87,0.00,,,0.00,,2013-06-23 05:52:00,
2013-06-23 02:02:00,66.0,63.0,30.35,South,177,4.0,7.0,89,0.00,,,0.00,,2013-06-23 06:02:00,
2013-06-23 02:12:00,66.0,63.0,30.34,SSW,210,8.0,8.0,91,0.00,,,0.00,,2013-06-23 06:12:00,
2013-06-23 02:22:00,66.0,63.0,30.34,SSW,210,9.0,10.0,91,0.00,,,0.00,,2013-06-23 06:22:00,
2013-06-23 02:33:00,66.0,63.0,30.34,SSW,194,7.0,10.0,90,0.00,,,0.00,,2013-06-23 06:33:00,
2013-06-23 02:43:00,65.0,62.0,30.33,SSW,205,8.0,8.0,90,0.00,,,0.00,,2013-06-23 06:43:00,
2013-06-23 02:52:00,66.0,63.0,30.33,SSW,212,9.0,10.0,90,0.00,,,0.00,,2013-06-23 06:52:00,
2013-06-23 03:02:00,66.0,63.0,30.33,SW,218,9.0,9.0,89,0.00,,,0.00,,2013-06-23 07:02:00,
2013-06-23 03:12:00,66.0,63.0,30.33,SW,224,11.0,11.0,90,0.00,,,0.00,,2013-06-23 07:12:00,
2013-06-23 03:22:00,66.0,63.0,30.33,SW,219,11.0,11.0,90,0.00,,,0.00,,2013-06-23 07:22:00,
2013-06-23 03:34:00,65.0,62.0,30.33,SSW,212,11.0,12.0,91,0.00,,,0.00,,2013-06-23 07:34:00,
2013-06-23 03:43:00,65.0,63.0,30.32,SSW,207,8.0,10.0,93,0.00,,,0.00,,2013-06-23 07:43:00,
2013-06-23 03:53:00,65.0,63.0,30.32,SW,217,9.0,12.0,94,0.00,,,0.00,,2013-06-23 07:53:00,
2013-06-23 04:02:00,65.0,64.0,30.32,SW,222,9.0,11.0,95,0.00,,,0.00,,2013-06-23 08:02:00,
2013-06-23 04:12:00,65.0,63.0,30.32,SSW,203,9.0,12.0,93,0.00,,,0.00,,2013-06-23 08:12:00,
2013-06-23 04:22:00,65.0,63.0,30.32,SSW,207,12.0,12.0,94,0.00,,,0.00,,2013-06-23 08:22:00,
2013-06-23 04:34:00,65.0,63.0,30.31,SSW,194,12.0,15.0,93,0.00,,,0.00,,2013-06-23 08:34:00,
2013-06-23 04:43:00,64.0,62.0,30.32,SSW,210,10.0,12.0,94,0.00,,,0.00,,2013-06-23 08:43:00,
2013-06-23 04:53:00,64.0,62.0,30.32,SW,218,10.0,12.0,94,0.00,,,0.00,,2013-06-23 08:53:00,
2013-06-23 05:02:00,64.0,63.0,30.32,SW,221,11.0,11.0,95,0.00,,,0.00,,2013-06-23 09:02:00,
2013-06-23 05:12:00,64.0,63.0,30.32,SW,222,13.0,13.0,95,0.00,,,0.00,,2013-06-23 09:12:00,
2013-06-23 05:22:00,65.0,63.0,30.32,SW,225,12.0,13.0,94,0.00,,,0.00,,2013-06-23 09:22:00,
2013-06-23 05:34:00,65.0,62.0,30.32,SSW,201,12.0,13.0,90,0.00,,,0.00,,2013-06-23 09:34:00,
2013-06-23 05:43:00,66.0,63.0,30.32,SSW,200,10.0,13.0,89,0.00,,,0.00,,2013-06-23 09:43:00,
2013-06-23 05:53:00,66.0,62.0,30.32,SSW,201,10.0,11.0,88,0.00,,,0.00,,2013-06-23 09:53:00,
2013-06-23 06:02:00,66.0,63.0,30.32,SSW,208,10.0,11.0,91,0.00,,,0.00,,2013-06-23 10:02:00,
2013-06-23 06:11:00,65.0,62.0,30.32,SSW,202,10.0,10.0,91,0.00,,,0.00,,2013-06-23 10:11:00,
2013-06-23 06:22:00,65.0,64.0,30.33,SSW,209,9.0,10.0,95,0.00,,,0.00,,2013-06-23 10:22:00,
2013-06-23 06:34:00,65.0,62.0,30.33,SSW,212,10.0,10.0,91,0.00,,,0.00,,2013-06-23 10:34:00,
2013-06-23 06:43:00,66.0,64.0,30.34,SW,222,10.0,11.0,93,0.00,,,0.00,,2013-06-23 10:43:00,
2013-06-23 06:53:00,65.0,64.0,30.34,SSW,207,4.0,10.0,96,0.00,,,0.00,,2013-06-23 10:53:00,
2013-06-23 07:01:00,65.0,64.0,30.35,SW,229,7.0,8.0,97,0.00,,,0.00,,2013-06-23 11:01:00,
2013-06-23 07:11:00,65.0,64.0,30.35,SW,219,7.0,7.0,98,0.00,,,0.00,,2013-06-23 11:11:00,
2013-06-23 07:22:00,66.0,65.0,30.35,SSW,203,7.0,7.0,96,0.00,,,0.00,,2013-06-23 11:22:00,
2013-06-23 07:33:00,65.0,64.0,30.35,SSW,200,5.0,7.0,96,0.00,,,0.00,,2013-06-23 11:33:00,
2013-06-23 07:43:00,65.0,64.0,30.36,SW,218,10.0,10.0,96,0.00,,,0.00,,2013-06-23 11:43:00,
2013-06-23 07:53:00,65.0,64.0,30.36,SW,215,8.0,9.0,96,0.00,,,0.00,,2013-06-23 11:53:00,
2013-06-23 08:01:00,65.0,64.0,30.36,SW,233,7.0,8.0,95,0.00,,,0.00,,2013-06-23 12:01:00,
2013-06-23 08:12:00,65.0,63.0,30.36,SW,232,7.0,8.0,94,0.00,,,0.00,,2013-06-23 12:12:00,
2013-06-23 08:22:00,66.0,65.0,30.37,SW,229,7.0,9.0,95,0.00,,,0.00,,2013-06-23 12:22:00,
2013-06-23 08:33:00,65.0,64.0,30.37,SW,215,6.0,8.0,97,0.00,,,0.00,,2013-06-23 12:33:00,
2013-06-23 08:42:00,65.0,64.0,30.37,SSW,208,4.0,6.0,97,0.00,,,0.00,,2013-06-23 12:42:00,
2013-06-23 08:53:00,65.0,64.0,30.38,SSW,194,4.0,5.0,97,0.00,,,0.00,,2013-06-23 12:53:00,
2013-06-23 09:02:00,64.0,63.0,30.38,SW,231,4.0,5.0,98,0.00,,,0.00,,2013-06-23 13:02:00,
2013-06-23 09:23:00,65.0,64.0,30.39,West,266,3.0,4.0,98,0.00,,,0.00,,2013-06-23 13:23:00,
2013-06-23 09:34:00,65.0,64.0,30.39,WSW,257,4.0,6.0,97,0.00,,,0.00,,2013-06-23 13:34:00,
2013-06-23 09:43:00,65.0,64.0,30.39,South,174,4.0,7.0,97,0.00,,,0.00,,2013-06-23 13:43:00,
2013-06-23 09:53:00,65.0,64.0,30.39,WNW,284,3.0,5.0,95,0.00,,,0.00,,2013-06-23 13:53:00,
2013-06-23 10:05:00,65.0,62.0,30.39,WNW,295,2.0,4.0,90,0.01,,,0.01,,2013-06-23 14:05:00,
2013-06-23 10:11:00,65.0,62.0,30.39,WSW,255,3.0,4.0,91,0.01,,,0.01,,2013-06-23 14:11:00,
2013-06-23 10:22:00,66.0,65.0,30.39,SSW,194,2.0,4.0,96,0.01,,,0.01,,2013-06-23 14:22:00,
2013-06-23 10:34:00,66.0,65.0,30.39,SE,132,1.0,2.0,95,0.01,,,0.01,,2013-06-23 14:34:00,
2013-06-23 10:44:00,68.0,66.0,30.39,WSW,256,4.0,7.0,92,0.01,,,0.01,,2013-06-23 14:44:00,
2013-06-23 10:52:00,68.0,66.0,30.39,SSW,208,3.0,6.0,94,0.01,,,0.01,,2013-06-23 14:52:00,
2013-06-23 11:05:00,68.0,66.0,30.39,South,185,4.0,7.0,92,0.00,,,0.01,,2013-06-23 15:05:00,
2013-06-23 11:11:00,68.0,65.0,30.40,WSW,239,4.0,6.0,91,0.00,,,0.01,,2013-06-23 15:11:00,
2013-06-23 11:23:00,68.0,65.0,30.39,SW,223,5.0,7.0,91,0.00,,,0.01,,2013-06-23 15:23:00,
2013-06-23 11:35:00,69.0,65.0,30.40,WSW,246,4.0,9.0,87,0.00,,,0.01,,2013-06-23 15:35:00,
2013-06-23 11:43:00,68.0,66.0,30.40,West,271,5.0,6.0,92,0.00,,,0.01,,2013-06-23 15:43:00,
2013-06-23 11:52:00,68.0,66.0,30.40,South,190,4.0,10.0,93,0.00,,,0.01,,2013-06-23 15:52:00,
2013-06-23 12:06:00,67.0,65.0,30.40,SSW,205,5.0,9.0,92,0.00,,,0.01,,2013-06-23 16:06:00,
2013-06-23 12:12:00,68.0,65.0,30.40,SSE,155,3.0,5.0,91,0.00,,,0.01,,2013-06-23 16:12:00,
2013-06-23 12:22:00,68.0,65.0,30.40,WSW,255,4.0,6.0,91,0.00,,,0.01,,2013-06-23 16:22:00,
2013-06-23 12:36:00,69.0,66.0,30.40,SSW,198,4.0,6.0,90,0.00,,,0.01,,2013-06-23 16:36:00,
2013-06-23 12:43:00,69.0,63.0,30.39,WSW,255,4.0,8.0,81,0.00,,,0.01,,2013-06-23 16:43:00,
2013-06-23 12:53:00,69.0,61.0,30.39,SSW,197,3.0,9.0,75,0.00,,,0.01,,2013-06-23 16:53:00,
2013-06-23 13:05:00,70.0,64.0,30.39,SSW,200,7.0,10.0,81,0.00,,,0.01,,2013-06-23 17:05:00,
2013-06-23 13:12:00,70.0,65.0,30.39,SSW,193,6.0,8.0,83,0.00,,,0.01,,2013-06-23 17:12:00,
2013-06-23 13:22:00,69.0,64.0,30.39,South,170,3.0,5.0,84,0.00,,,0.01,,2013-06-23 17:22:00,
2013-06-23 13:33:00,70.0,65.0,30.38,SSW,208,5.0,7.0,85,0.00,,,0.01,,2013-06-23 17:33:00,
2013-06-23 13:43:00,70.0,65.0,30.37,SW,218,2.0,8.0,85,0.00,,,0.01,,2013-06-23 17:43:00,
2013-06-23 13:53:00,71.0,66.0,30.38,SSW,193,7.0,11.0,84,0.00,,,0.01,,2013-06-23 17:53:00,
2013-06-23 14:01:00,70.0,64.0,30.37,South,184,5.0,12.0,82,0.00,,,0.01,,2013-06-23 18:01:00,
2013-06-23 14:12:00,71.0,65.0,30.37,SW,219,8.0,11.0,82,0.00,,,0.01,,2013-06-23 18:12:00,
2013-06-23 14:22:00,71.0,65.0,30.36,SSW,198,3.0,10.0,82,0.00,,,0.01,,2013-06-23 18:22:00,
2013-06-23 14:34:00,71.0,65.0,30.36,SSW,204,3.0,12.0,82,0.00,,,0.01,,2013-06-23 18:34:00,
2013-06-23 14:43:00,71.0,65.0,30.36,SW,218,5.0,13.0,80,0.00,,,0.01,,2013-06-23 18:43:00,
2013-06-23 14:53:00,71.0,65.0,30.35,SSW,201,5.0,10.0,82,0.00,,,0.01,,2013-06-23 18:53:00,
2013-06-23 15:01:00,72.0,65.0,30.35,SW,228,3.0,10.0,79,0.00,,,0.01,,2013-06-23 19:01:00,
2013-06-23 15:11:00,71.0,65.0,30.35,SSE,165,5.0,10.0,81,0.00,,,0.01,,2013-06-23 19:11:00,
2013-06-23 15:21:00,70.0,64.0,30.34,South,174,4.0,9.0,82,0.00,,,0.01,,2013-06-23 19:21:00,
2013-06-23 15:32:00,71.0,65.0,30.34,South,180,3.0,6.0,82,0.00,,,0.01,,2013-06-23 19:32:00,
2013-06-23 15:43:00,71.0,65.0,30.34,SSE,150,5.0,8.0,82,0.00,,,0.01,,2013-06-23 19:43:00,
2013-06-23 15:53:00,70.0,65.0,30.33,SSW,196,8.0,9.0,83,0.00,,,0.01,,2013-06-23 19:53:00,
2013-06-23 16:02:00,70.0,64.0,30.33,South,176,4.0,8.0,82,0.00,,,0.01,,2013-06-23 20:02:00,
2013-06-23 16:12:00,71.0,65.0,30.33,South,179,4.0,6.0,82,0.00,,,0.01,,2013-06-23 20:12:00,
2013-06-23 16:24:00,72.0,66.0,30.33,SW,221,6.0,10.0,81,0.00,,,0.01,,2013-06-23 20:24:00,
2013-06-23 16:33:00,71.0,66.0,30.33,South,174,3.0,6.0,83,0.00,,,0.01,,2013-06-23 20:33:00,
2013-06-23 16:42:00,71.0,65.0,30.33,SSW,207,4.0,5.0,80,0.00,,,0.01,,2013-06-23 20:42:00,
2013-06-23 16:53:00,71.0,65.0,30.33,SSW,197,3.0,7.0,82,0.00,,,0.01,,2013-06-23 20:53:00,
2013-06-23 17:01:00,71.0,66.0,30.33,South,183,6.0,11.0,83,0.00,,,0.01,,2013-06-23 21:01:00,
2013-06-23 17:11:00,71.0,66.0,30.33,South,177,5.0,8.0,85,0.00,,,0.01,,2013-06-23 21:11:00,
2013-06-23 17:22:00,70.0,66.0,30.33,South,188,7.0,9.0,86,0.00,,,0.01,,2013-06-23 21:22:00,
2013-06-23 17:34:00,70.0,66.0,30.33,SSW,196,9.0,10.0,86,0.01,,,0.02,,2013-06-23 21:34:00,
2013-06-23 17:44:00,69.0,65.0,30.32,South,190,6.0,8.0,86,0.01,,,0.02,,2013-06-23 21:44:00,
2013-06-23 17:52:00,70.0,65.0,30.32,SSW,200,5.0,6.0,85,0.01,,,0.02,,2013-06-23 21:52:00,
2013-06-23 18:01:00,70.0,65.0,30.32,South,176,2.0,6.0,84,0.01,,,0.02,,2013-06-23 22:01:00,
2013-06-23 18:12:00,71.0,65.0,30.32,South,191,4.0,5.0,81,0.01,,,0.02,,2013-06-23 22:12:00,
2013-06-23 18:22:00,72.0,66.0,30.32,West,264,2.0,4.0,82,0.01,,,0.02,,2013-06-23 22:22:00,
2013-06-23 18:32:00,71.0,65.0,30.32,SSE,160,5.0,10.0,80,0.00,,,0.02,,2013-06-23 22:32:00,
2013-06-23 18:43:00,69.0,65.0,30.32,South,187,7.0,11.0,86,0.01,,,0.03,,2013-06-23 22:43:00,
2013-06-23 18:53:00,69.0,63.0,30.32,SSE,160,4.0,8.0,81,0.01,,,0.03,,2013-06-23 22:53:00,
2013-06-23 19:01:00,70.0,64.0,30.32,SSE,153,1.0,5.0,82,0.01,,,0.03,,2013-06-23 23:01:00,
2013-06-23 19:11:00,70.0,64.0,30.32,WSW,238,4.0,5.0,81,0.01,,,0.03,,2013-06-23 23:11:00,
2013-06-23 19:22:00,70.0,65.0,30.33,SW,217,2.0,4.0,84,0.01,,,0.03,,2013-06-23 23:22:00,
2013-06-23 19:33:00,70.0,64.0,30.33,NNE,32,2.0,2.0,82,0.01,,,0.03,,2013-06-23 23:33:00,
2013-06-23 19:44:00,69.0,65.0,30.33,East,99,3.0,5.0,86,0.00,,,0.03,,2013-06-23 23:44:00,
2013-06-23 19:52:00,69.0,65.0,30.32,East,84,2.0,3.0,86,0.00,,,0.03,,2013-06-23 23:52:00,
2013-06-23 20:01:00,68.0,64.0,30.33,East,84,5.0,6.0,88,0.01,,,0.04,,2013-06-24 00:01:00,
2013-06-23 20:11:00,66.0,65.0,30.33,ESE,113,17.0,21.0,96,0.01,,,0.04,,2013-06-24 00:11:00,
2013-06-23 20:22:00,64.0,63.0,30.34,SSE,164,17.0,26.0,96,0.04,,,0.07,,2013-06-24 00:22:00,
2013-06-23 20:33:00,63.0,62.0,30.34,SE,134,13.0,22.0,98,0.09,,,0.12,,2013-06-24 00:33:00,
2013-06-23 20:42:00,63.0,62.0,30.34,ESE,113,16.0,22.0,98,0.26,,,0.29,,2013-06-24 00:42:00,
2013-06-23 20:52:00,62.0,61.0,30.34,SE,127,11.0,16.0,98,0.38,,,0.41,,2013-06-24 00:52:00,
2013-06-23 21:02:00,64.0,64.0,30.33,SSE,155,12.0,14.0,99,0.38,,,0.42,,2013-06-24 01:02:00,
2013-06-23 21:11:00,63.0,62.0,30.32,SSE,160,15.0,17.0,98,0.39,,,0.43,,2013-06-24 01:11:00,
2013-06-23 21:22:00,63.0,62.0,30.34,SSE,168,8.0,16.0,98,0.36,,,0.43,,2013-06-24 01:22:00,
2013-06-23 21:32:00,63.0,62.0,30.35,SSE,153,14.0,16.0,98,0.30,,,0.43,,2013-06-24 01:32:00,
2013-06-23 21:42:00,63.0,62.0,30.35,SSE,162,6.0,14.0,98,0.14,,,0.43,,2013-06-24 01:42:00,
2013-06-23 21:53:00,63.0,63.0,30.35,South,174,7.0,13.0,99,0.09,,,0.50,,2013-06-24 01:53:00,
2013-06-23 22:02:00,64.0,64.0,30.35,South,184,6.0,11.0,99,0.09,,,0.51,,2013-06-24 02:02:00,
2013-06-23 22:11:00,64.0,64.0,30.35,WSW,240,11.0,11.0,99,0.09,,,0.52,,2013-06-24 02:11:00,
2013-06-23 22:22:00,65.0,65.0,30.35,WSW,239,15.0,17.0,99,0.09,,,0.52,,2013-06-24 02:22:00,
2013-06-23 22:33:00,65.0,65.0,30.35,WSW,237,18.0,18.0,99,0.09,,,0.52,,2013-06-24 02:33:00,
2013-06-23 22:42:00,66.0,66.0,30.35,WSW,253,17.0,17.0,99,0.08,,,0.52,,2013-06-24 02:42:00,
2013-06-23 22:53:00,66.0,66.0,30.36,WSW,244,18.0,18.0,99,0.02,,,0.52,,2013-06-24 02:53:00,
2013-06-23 23:01:00,66.0,66.0,30.35,WSW,251,18.0,18.0,99,0.01,,,0.52,,2013-06-24 03:01:00,
2013-06-23 23:11:00,66.0,66.0,30.35,WSW,245,18.0,18.0,99,0.00,,,0.52,,2013-06-24 03:11:00,
2013-06-23 23:22:00,66.0,66.0,30.35,SW,222,16.0,18.0,99,0.00,,,0.52,,2013-06-24 03:22:00,
2013-06-23 23:33:00,67.0,67.0,30.36,SW,235,15.0,18.0,99,0.00,,,0.52,,2013-06-24 03:33:00,
2013-06-23 23:43:00,67.0,67.0,30.37,WSW,242,14.0,17.0,99,0.00,,,0.52,,2013-06-24 03:43:00,
2013-06-23 23:53:00,66.0,66.0,30.37,West,259,14.0,17.0,99,0.00,,,0.52,,2013-06-24 03:53:00,